createdAt,value
2017-02-23T00:01:32.696Z,64.76
2017-02-23T00:06:48.416Z,65.05
2017-02-23T00:12:04.723Z,65.24
2017-02-23T00:17:20.822Z,64.76
2017-02-23T00:22:37.100Z,65.24
2017-02-23T00:27:53.348Z,65.24
2017-02-23T00:33:09.820Z,64.86
2017-02-23T00:38:25.432Z,65.14
2017-02-23T00:43:41.039Z,64.95
2017-02-23T00:48:57.588Z,65.24
2017-02-23T00:54:15.108Z,65.33
2017-02-23T00:59:31.504Z,65.05
2017-02-23T01:04:47.301Z,64.95
2017-02-23T01:10:02.875Z,65.11
2017-02-23T01:15:18.637Z,65.01
2017-02-23T01:20:35.896Z,64.66
2017-02-23T01:25:51.648Z,64.53
2017-02-23T01:31:07.257Z,65.05
2017-02-23T01:36:22.833Z,65.11
2017-02-23T01:41:39.177Z,65.33
2017-02-23T01:46:54.833Z,64.92
2017-02-23T01:52:10.556Z,64.82
2017-02-23T01:57:26.128Z,64.63
2017-02-23T02:02:41.762Z,64.63
2017-02-23T02:07:57.770Z,65.11
2017-02-23T02:13:13.393Z,65.3
2017-02-23T02:18:29.712Z,65.3
2017-02-23T02:23:45.358Z,65.5
2017-02-23T02:29:00.912Z,65.2
2017-02-23T02:34:16.487Z,65.11
2017-02-23T02:39:32.348Z,65.59
2017-02-23T02:44:48.644Z,65.4
2017-02-23T02:50:04.230Z,65.4
2017-02-23T02:55:19.825Z,65.2
2017-02-23T03:00:35.409Z,65.5
2017-02-23T03:05:51.010Z,65.59
2017-02-23T03:11:06.614Z,65.4
2017-02-23T03:16:22.747Z,65.59
2017-02-23T03:21:38.511Z,65.5
2017-02-23T03:26:54.079Z,65.59
2017-02-23T03:32:09.698Z,65.69
2017-02-23T03:37:25.556Z,65.97
2017-02-23T03:42:41.645Z,65.97
2017-02-23T03:47:57.721Z,65.69
2017-02-23T03:53:14.724Z,65.5
2017-02-23T03:58:30.474Z,65.59
2017-02-23T04:03:46.337Z,65.88
2017-02-23T04:09:01.916Z,65.56
2017-02-23T04:14:17.496Z,66.07
2017-02-23T04:19:33.281Z,66.07
2017-02-23T04:24:48.851Z,65.78
2017-02-23T04:30:05.098Z,65.94
2017-02-23T04:35:20.768Z,66.07
2017-02-23T04:40:36.587Z,66.33
2017-02-23T04:45:52.161Z,66.61
2017-02-23T04:51:07.729Z,66.23
2017-02-23T04:56:23.317Z,66.33
2017-02-23T05:01:38.917Z,66.23
2017-02-23T05:06:54.535Z,66.33
2017-02-23T05:12:10.215Z,66.33
2017-02-23T05:17:25.814Z,66.33
2017-02-23T05:22:41.406Z,66.33
2017-02-23T05:27:57.023Z,66.33
2017-02-23T05:33:13.407Z,66.33
2017-02-23T05:38:29.263Z,66.14
2017-02-23T05:43:44.835Z,66.14
2017-02-23T05:49:00.404Z,66.33
2017-02-23T05:54:16.014Z,66.52
2017-02-23T05:59:32.485Z,66.52
2017-02-23T06:04:48.086Z,66.33
2017-02-23T06:10:03.686Z,66.33
2017-02-23T06:15:19.250Z,67.29
2017-02-23T06:20:34.834Z,67.1
2017-02-23T06:25:50.432Z,66.81
2017-02-23T06:31:06.038Z,67.1
2017-02-23T06:36:21.628Z,66.91
2017-02-23T06:41:38.808Z,67.1
2017-02-23T06:46:54.407Z,67.19
2017-02-23T06:52:10.800Z,67.19
2017-02-23T06:57:26.374Z,67.48
2017-02-23T07:02:42.032Z,67.38
2017-02-23T07:07:57.648Z,67.19
2017-02-23T07:13:13.678Z,67.1
2017-02-23T07:18:29.856Z,67.29
2017-02-23T07:23:45.479Z,67.19
2017-02-23T07:29:01.060Z,67.68
2017-02-23T07:34:16.628Z,67.48
2017-02-23T07:39:32.287Z,67.1
2017-02-23T07:44:48.017Z,67.86
2017-02-23T07:50:03.817Z,67.48
2017-02-23T07:55:19.385Z,67.93
2017-02-23T08:00:34.969Z,67.64
2017-02-23T08:05:50.586Z,67.64
2017-02-23T08:11:06.316Z,67.64
2017-02-23T08:16:21.894Z,67.54
2017-02-23T08:21:38.385Z,67.1
2017-02-23T08:26:55.155Z,67.29
2017-02-23T08:32:10.943Z,66.42
2017-02-23T08:37:27.368Z,66.23
2017-02-23T08:42:43.190Z,66.42
2017-02-23T08:47:58.827Z,66.52
2017-02-23T08:53:14.430Z,65.56
2017-02-23T08:58:31.507Z,65.59
2017-02-23T09:03:48.701Z,65.3
2017-02-23T09:09:04.411Z,65.01
2017-02-23T09:14:20.001Z,64.25
2017-02-23T09:19:35.603Z,63.18
2017-02-23T09:24:51.187Z,63.22
2017-02-23T09:30:07.027Z,62.06
2017-02-23T09:35:23.293Z,61.42
2017-02-23T09:40:39.469Z,60.17
2017-02-23T09:45:55.219Z,60
2017-02-23T09:51:10.972Z,57.89
2017-02-23T09:56:26.688Z,56.85
2017-02-23T10:01:42.930Z,52.57
2017-02-23T10:06:58.574Z,49.17
2017-02-23T10:12:15.609Z,46.44
2017-02-23T10:17:31.937Z,44.91
2017-02-23T10:22:47.763Z,43.7
2017-02-23T10:28:03.375Z,42.46
2017-02-23T10:33:19.247Z,41.49
2017-02-23T10:38:35.328Z,41.39
2017-02-23T10:43:51.378Z,40.03
2017-02-23T10:49:07.316Z,39.88
2017-02-23T10:54:23.128Z,40.77
2017-02-23T10:59:39.765Z,40.09
2017-02-23T11:04:56.070Z,39.53
2017-02-23T11:10:11.831Z,38.67
2017-02-23T11:15:27.583Z,38.4
2017-02-23T11:20:43.528Z,43.29
2017-02-23T11:26:00.086Z,42.19
2017-02-23T11:31:15.757Z,38.31
2017-02-23T11:36:33.569Z,36.75
2017-02-23T11:41:49.505Z,38.54
2017-02-23T11:47:05.135Z,38.39
2017-02-23T11:52:20.763Z,37.62
2017-02-23T11:57:37.847Z,43.95
2017-02-23T12:02:53.519Z,46.8
2017-02-23T12:08:09.174Z,48.86
2017-02-23T12:13:24.802Z,49.68
2017-02-23T12:18:41.009Z,48.03
2017-02-23T12:23:56.650Z,50.38
2017-02-23T12:29:12.270Z,51.68
2017-02-23T12:34:28.918Z,51.65
2017-02-23T12:39:44.992Z,49.63
2017-02-23T12:45:02.839Z,50.43
2017-02-23T12:50:18.523Z,51.49
2017-02-23T12:55:34.397Z,52.14
2017-02-23T13:00:51.281Z,49.44
2017-02-23T13:06:07.145Z,51.51
2017-02-23T13:11:22.739Z,52.81
2017-02-23T13:16:38.344Z,53.56
2017-02-23T13:21:54.181Z,53.66
2017-02-23T13:27:11.229Z,54.11
2017-02-23T13:32:26.973Z,54.21
2017-02-23T13:37:43.489Z,54.11
2017-02-23T13:42:59.216Z,54.79
2017-02-23T13:48:14.815Z,54.79
2017-02-23T13:53:32.427Z,54.76
2017-02-23T13:58:48.518Z,55.46
2017-02-23T14:04:04.704Z,55.34
2017-02-23T14:09:22.160Z,54.57
2017-02-23T14:14:39.631Z,55.08
2017-02-23T14:19:56.963Z,55.92
2017-02-23T14:25:14.188Z,56.11
2017-02-23T14:30:30.016Z,56.4
2017-02-23T14:35:46.148Z,56.09
2017-02-23T14:41:02.212Z,56.85
2017-02-23T14:46:19.418Z,56.85
2017-02-23T14:51:35.991Z,57.05
2017-02-23T14:56:52.618Z,57.05
2017-02-23T15:02:08.873Z,56.66
2017-02-23T15:07:25.292Z,57.14
2017-02-23T15:12:41.476Z,57.05
2017-02-23T15:17:57.175Z,57.14
2017-02-23T15:23:15.368Z,57.05
2017-02-23T15:28:32.081Z,56.09
2017-02-23T15:33:48.785Z,55.82
2017-02-23T15:39:05.280Z,56.01
2017-02-23T15:44:20.878Z,56.11
2017-02-23T15:49:36.728Z,56.3
2017-02-23T15:54:52.878Z,56.21
2017-02-23T16:00:08.482Z,56.59
2017-02-23T16:05:26.123Z,55.05
2017-02-23T16:10:41.959Z,55.51
2017-02-23T16:15:57.659Z,53.96
2017-02-23T16:21:13.393Z,54.06
2017-02-23T16:26:31.012Z,53.48
2017-02-23T16:31:47.446Z,53.48
2017-02-23T16:37:03.155Z,52.33
2017-02-23T16:42:24.576Z,52.61
2017-02-23T16:47:42.195Z,53.48
2017-02-23T16:52:59.610Z,53.27
2017-02-23T16:58:18.419Z,53.36
2017-02-23T17:03:35.642Z,52.01
2017-02-23T17:08:52.854Z,52.49
2017-02-23T17:14:09.283Z,52.2
2017-02-23T17:19:26.767Z,52.01
2017-02-23T17:24:43.714Z,52.08
2017-02-23T17:29:59.394Z,52.08
2017-02-23T17:35:16.953Z,52.56
2017-02-23T17:40:34.243Z,52.75
2017-02-23T17:45:52.339Z,52.47
2017-02-23T17:51:08.176Z,53.14
2017-02-23T17:56:23.837Z,53.33
2017-02-23T18:01:39.757Z,53.62
2017-02-23T18:06:55.832Z,53.62
2017-02-23T18:12:13.180Z,53.62
2017-02-23T18:17:30.418Z,53.43
2017-02-23T18:22:47.041Z,54.1
2017-02-23T18:28:02.647Z,54.3
2017-02-23T18:33:18.360Z,54.58
2017-02-23T18:38:35.081Z,54.27
2017-02-23T18:43:51.724Z,54.3
2017-02-23T18:49:08.114Z,54.17
2017-02-23T18:54:24.140Z,54.56
2017-02-23T18:59:40.883Z,54.36
2017-02-23T19:04:58.335Z,54.65
2017-02-23T19:10:17.154Z,55.43
2017-02-23T19:15:34.136Z,55.13
2017-02-23T19:20:50.359Z,55.62
2017-02-23T19:26:06.005Z,55.13
2017-02-23T19:31:23.078Z,55.04
2017-02-23T19:36:38.796Z,54.94
2017-02-23T19:41:57.875Z,54.85
2017-02-23T19:47:14.514Z,55.33
2017-02-23T19:52:33.152Z,55.52
2017-02-23T19:57:50.637Z,55.33
2017-02-23T20:03:06.767Z,55.23
2017-02-23T20:08:23.996Z,55.33
2017-02-23T20:13:41.883Z,55.33
2017-02-23T20:18:57.955Z,55.81
2017-02-23T20:24:15.875Z,55.81
2017-02-23T20:29:35.401Z,55.62
2017-02-23T20:34:54.639Z,55.81
2017-02-23T20:40:10.499Z,56.38
2017-02-23T20:45:28.285Z,56.87
2017-02-23T20:50:46.439Z,56.1
2017-02-23T20:56:02.512Z,56.2
2017-02-23T21:01:19.636Z,56.77
2017-02-23T21:06:38.697Z,56.58
2017-02-23T21:11:55.918Z,56.96
2017-02-23T21:17:13.451Z,56.87
2017-02-23T21:22:30.529Z,57.06
2017-02-23T21:27:47.143Z,57.13
2017-02-23T21:33:03.093Z,57.92
2017-02-23T21:38:20.832Z,57.32
2017-02-23T21:43:39.106Z,57.99
2017-02-23T21:48:56.532Z,58.28
2017-02-23T21:54:14.666Z,58.37
2017-02-23T21:59:33.184Z,58.67
2017-02-23T22:04:49.643Z,58.67
2017-02-23T22:10:05.786Z,58.57
2017-02-23T22:15:22.772Z,58.76
2017-02-23T22:20:42.703Z,58.57
2017-02-23T22:26:00.013Z,58.86
2017-02-23T22:31:18.900Z,59.15
2017-02-23T22:36:36.469Z,58.86
2017-02-23T22:41:53.105Z,59.15
2017-02-23T22:47:11.282Z,58.86
2017-02-23T22:52:29.168Z,59.15
2017-02-23T22:57:46.027Z,59.72
2017-02-23T23:03:02.331Z,60.01
2017-02-23T23:08:20.867Z,59.72
2017-02-23T23:13:37.606Z,60.39
2017-02-23T23:18:54.593Z,60.69
2017-02-23T23:24:10.233Z,60.59
2017-02-23T23:29:26.514Z,60.59
2017-02-23T23:34:42.723Z,60.3
2017-02-23T23:39:58.439Z,60.39
2017-02-23T23:45:15.249Z,60.49
2017-02-23T23:50:33.627Z,61.07
2017-02-23T23:55:49.205Z,60.88
